Time;durP1;ratioP1;P1;durP2;ratioP2;P2;SDS_P1;SDS_P2;PMS_P1;PMS_P2;Temp;Humidity;BMP_temperature;BMP_pressure;BME280_temperature;BME280_humidity;BME280_pressure;Samples;Min_cycle;Max_cycle;Signal;HPM_P1;HPM_P2
2022/04/16 00:01:39;;;;;;;20.15;13.00;;;9.60;99.90;;;;;;5031240;28;20025;-57
2022/04/16 00:04:06;;;;;;;17.25;12.65;;;9.60;99.90;;;;;;5031946;28;20071;-59
2022/04/16 00:06:31;;;;;;;19.05;11.65;;;9.60;99.90;;;;;;5032288;28;20519;-58
2022/04/16 00:08:57;;;;;;;18.77;12.10;;;9.60;99.90;;;;;;5026474;28;20035;-58
2022/04/16 00:11:22;;;;;;;18.40;12.45;;;9.50;99.90;;;;;;5031663;28;20047;-60
2022/04/16 00:13:50;;;;;;;17.15;12.00;;;9.40;99.90;;;;;;5025549;28;20021;-60
2022/04/16 00:16:17;;;;;;;22.25;12.98;;;9.30;99.90;;;;;;5031717;28;20029;-60
2022/04/16 00:18:43;;;;;;;17.85;11.35;;;9.30;99.90;;;;;;5031592;28;20024;-58
2022/04/16 00:21:09;;;;;;;17.33;11.43;;;9.30;99.90;;;;;;5034062;28;20083;-60
2022/04/16 00:23:34;;;;;;;16.80;11.85;;;9.30;99.90;;;;;;5029864;28;20021;-59
2022/04/16 00:26:02;;;;;;;19.05;12.82;;;9.30;99.90;;;;;;5027206;28;20038;-60
2022/04/16 00:28:28;;;;;;;20.52;13.95;;;9.30;99.90;;;;;;5028678;28;20049;-59
2022/04/16 00:30:56;;;;;;;23.52;12.77;;;9.20;99.90;;;;;;5031304;28;20021;-60
2022/04/16 00:33:21;;;;;;;22.33;13.25;;;9.10;99.90;;;;;;5031775;28;20061;-60
2022/04/16 00:35:47;;;;;;;18.90;12.55;;;9.10;99.90;;;;;;5026859;28;20466;-60
2022/04/16 00:38:12;;;;;;;20.73;12.45;;;9.10;99.90;;;;;;5030204;28;20033;-60
2022/04/16 00:40:39;;;;;;;22.50;14.27;;;9.10;99.90;;;;;;5030725;28;20079;-59
2022/04/16 00:43:05;;;;;;;21.83;13.05;;;9.00;99.90;;;;;;5031401;28;20040;-59
2022/04/16 00:45:31;;;;;;;21.15;13.50;;;8.80;99.90;;;;;;5032398;28;20028;-58
2022/04/16 00:47:59;;;;;;;21.73;13.88;;;8.70;99.90;;;;;;5030602;28;20021;-59
2022/04/16 00:50:24;;;;;;;21.05;13.32;;;8.60;99.90;;;;;;5030886;28;20517;-56
2022/04/16 00:52:50;;;;;;;20.95;12.68;;;8.60;99.90;;;;;;5031104;28;20033;-56
2022/04/16 00:55:17;;;;;;;22.60;13.98;;;8.50;99.90;;;;;;5026667;28;20376;-57
2022/04/16 00:57:43;;;;;;;21.25;13.82;;;8.50;99.90;;;;;;5024632;28;20081;-58
2022/04/16 01:00:11;;;;;;;21.33;13.90;;;8.40;99.90;;;;;;5026669;28;20053;-58
2022/04/16 01:02:38;;;;;;;23.50;13.93;;;8.30;99.90;;;;;;5030381;28;20021;-55
2022/04/16 01:05:05;;;;;;;21.77;14.38;;;8.20;99.90;;;;;;5026597;28;20483;-54
2022/04/16 01:07:30;;;;;;;24.38;15.43;;;8.10;99.90;;;;;;5026203;28;20124;-59
2022/04/16 01:09:56;;;;;;;29.00;15.95;;;8.00;99.90;;;;;;5024940;28;20852;-61
2022/04/16 01:12:22;;;;;;;22.92;14.27;;;8.00;99.90;;;;;;5029515;28;20038;-59
2022/04/16 01:14:49;;;;;;;25.77;15.85;;;7.80;99.90;;;;;;5028021;28;20037;-56
2022/04/16 01:17:15;;;;;;;27.00;15.13;;;7.80;99.90;;;;;;5029651;28;20446;-56
2022/04/16 01:19:41;;;;;;;25.15;15.63;;;7.70;99.90;;;;;;5029394;28;20025;-56
2022/04/16 01:22:13;;;;;;;27.63;16.25;;;7.60;99.90;;;;;;5029010;28;20017;-57
2022/04/16 01:24:47;;;;;;;25.52;16.38;;;7.50;99.90;;;;;;5029845;28;20091;-54
2022/04/16 01:27:12;;;;;;;24.58;14.95;;;7.50;99.90;;;;;;5028278;28;20041;-56
2022/04/16 01:29:40;;;;;;;30.30;15.90;;;7.40;99.90;;;;;;5028416;28;20041;-56
2022/04/16 01:32:06;;;;;;;27.70;16.63;;;7.40;99.90;;;;;;5034311;28;20052;-58
2022/04/16 01:34:32;;;;;;;27.63;16.48;;;7.30;99.90;;;;;;5028554;28;20049;-57
2022/04/16 01:37:02;;;;;;;27.45;17.30;;;7.20;99.90;;;;;;5029797;28;20520;-55
2022/04/16 01:39:31;;;;;;;27.23;15.60;;;7.10;99.90;;;;;;5027765;28;20022;-58
2022/04/16 01:41:57;;;;;;;31.65;17.00;;;7.20;99.90;;;;;;5030624;28;20079;-58
2022/04/16 01:44:23;;;;;;;28.42;17.67;;;7.10;99.90;;;;;;5030894;28;20087;-56
2022/04/16 01:46:49;;;;;;;30.67;17.23;;;7.10;99.90;;;;;;5030038;28;20029;-55
2022/04/16 01:49:14;;;;;;;35.50;18.30;;;7.10;99.90;;;;;;5029962;28;20080;-60
2022/04/16 01:51:40;;;;;;;29.83;17.60;;;7.10;99.90;;;;;;5029652;28;20040;-59
2022/04/16 01:54:05;;;;;;;29.90;16.30;;;7.00;99.90;;;;;;5030039;28;20026;-58
2022/04/16 01:56:31;;;;;;;30.45;17.40;;;7.00;99.90;;;;;;5030178;28;20033;-59
2022/04/16 01:58:56;;;;;;;33.95;17.88;;;7.00;99.90;;;;;;5030153;28;20028;-55
2022/04/16 02:01:22;;;;;;;31.73;19.02;;;7.00;99.90;;;;;;5029794;28;20033;-54
2022/04/16 02:03:48;;;;;;;29.33;17.45;;;6.90;99.90;;;;;;5025309;28;20028;-57
2022/04/16 02:06:14;;;;;;;32.55;19.17;;;6.90;99.90;;;;;;5030392;28;20395;-58
2022/04/16 02:08:40;;;;;;;31.00;17.10;;;6.80;99.90;;;;;;5024812;28;20032;-59
2022/04/16 02:11:06;;;;;;;30.60;18.30;;;6.80;99.90;;;;;;5029781;28;20029;-57
2022/04/16 02:13:31;;;;;;;29.05;17.92;;;6.80;99.90;;;;;;5030214;28;20558;-59
2022/04/16 02:15:57;;;;;;;31.55;18.10;;;6.80;99.90;;;;;;5030764;28;20144;-58
2022/04/16 02:18:23;;;;;;;29.65;18.92;;;6.70;99.90;;;;;;5027259;28;20029;-59
2022/04/16 02:20:49;;;;;;;31.50;18.83;;;6.60;99.90;;;;;;5024154;28;20035;-57
2022/04/16 02:23:16;;;;;;;33.13;18.92;;;6.60;99.90;;;;;;5030179;28;20507;-58
2022/04/16 02:25:43;;;;;;;36.03;19.65;;;6.50;99.90;;;;;;5028952;28;20120;-57
2022/04/16 02:28:09;;;;;;;36.78;19.63;;;6.60;99.90;;;;;;5026511;28;20025;-55
2022/04/16 02:30:34;;;;;;;34.78;21.63;;;6.50;99.90;;;;;;5023431;28;20025;-58
2022/04/16 02:33:00;;;;;;;34.38;19.60;;;6.60;99.90;;;;;;5030057;28;20038;-58
2022/04/16 02:35:26;;;;;;;34.53;19.63;;;6.50;99.90;;;;;;5029412;28;20030;-59
2022/04/16 02:37:51;;;;;;;34.58;19.15;;;6.50;99.90;;;;;;5029891;28;20393;-57
2022/04/16 02:40:17;;;;;;;36.83;19.30;;;6.50;99.90;;;;;;5026683;28;20033;-57
2022/04/16 02:42:45;;;;;;;34.83;19.30;;;6.60;99.90;;;;;;5029514;28;20040;-55
2022/04/16 02:47:58;;;;;;;34.35;18.95;;;6.60;99.90;;;;;;5027983;28;20414;-59
2022/04/16 02:50:25;;;;;;;32.35;18.60;;;6.40;99.90;;;;;;5027605;28;20079;-57
2022/04/16 02:52:51;;;;;;;32.75;19.08;;;6.40;99.90;;;;;;5029687;28;21063;-55
2022/04/16 02:55:17;;;;;;;32.33;19.17;;;6.40;99.90;;;;;;5029847;28;20035;-56
2022/04/16 02:57:44;;;;;;;36.42;20.60;;;6.30;99.90;;;;;;5025245;28;20109;-59
2022/04/16 03:00:11;;;;;;;35.58;20.25;;;6.20;99.90;;;;;;5029297;28;20033;-56
2022/04/16 03:02:37;;;;;;;38.85;21.42;;;6.20;99.90;;;;;;5027286;28;20494;-59
2022/04/16 03:05:06;;;;;;;36.33;21.88;;;6.10;99.90;;;;;;5028875;28;20037;-58
2022/04/16 03:07:36;;;;;;;37.45;22.10;;;6.10;99.90;;;;;;5026760;28;20037;-58
2022/04/16 03:10:06;;;;;;;38.08;20.90;;;6.00;99.90;;;;;;5023146;28;20112;-57
2022/04/16 03:12:46;;;;;;;36.10;22.70;;;6.10;99.90;;;;;;5029510;28;20037;-57
2022/04/16 03:17:58;;;;;;;44.28;21.92;;;6.00;99.90;;;;;;5029821;28;20448;-58
2022/04/16 03:20:25;;;;;;;41.35;22.42;;;5.90;99.90;;;;;;5029293;28;20034;-56
2022/04/16 03:22:50;;;;;;;39.22;21.10;;;5.90;99.90;;;;;;5030651;28;20483;-60
2022/04/16 03:25:16;;;;;;;40.47;22.90;;;6.00;99.90;;;;;;5027429;28;20088;-59
2022/04/16 03:27:42;;;;;;;40.38;21.90;;;5.90;99.90;;;;;;5029075;28;20483;-60
2022/04/16 03:30:09;;;;;;;36.55;19.75;;;5.90;99.90;;;;;;5027523;28;20105;-59
2022/04/16 03:32:42;;;;;;;38.40;21.88;;;5.90;99.90;;;;;;5030100;28;20022;-56
2022/04/16 03:35:08;;;;;;;40.78;21.00;;;5.90;99.90;;;;;;5029293;28;20441;-59
2022/04/16 03:37:37;;;;;;;37.72;21.42;;;5.90;99.90;;;;;;5029091;28;20021;-59
2022/04/16 03:40:04;;;;;;;35.33;21.15;;;5.90;99.90;;;;;;5025265;28;20053;-60
2022/04/16 03:42:31;;;;;;;41.28;22.08;;;5.80;99.90;;;;;;5031430;28;20494;-59
2022/04/16 03:44:58;;;;;;;34.63;20.67;;;5.80;99.90;;;;;;5030611;28;20109;-59
2022/04/16 03:47:24;;;;;;;38.95;22.15;;;5.70;99.90;;;;;;5032019;28;20037;-57
2022/04/16 03:49:51;;;;;;;40.30;22.17;;;5.70;99.90;;;;;;5032074;28;20164;-59
2022/04/16 03:52:17;;;;;;;35.25;22.13;;;5.70;99.90;;;;;;5032857;28;20033;-59
2022/04/16 04:00:12;;;;;;;36.63;20.63;;;5.60;99.90;;;;;;5033340;28;20094;-59
2022/04/16 04:02:38;;;;;;;41.10;22.77;;;5.60;99.90;;;;;;5033916;28;20045;-59
2022/04/16 04:05:06;;;;;;;37.13;21.67;;;5.60;99.90;;;;;;5033137;28;20064;-56
2022/04/16 04:07:32;;;;;;;36.53;21.77;;;5.60;99.90;;;;;;5028430;28;20064;-58
2022/04/16 04:09:58;;;;;;;37.47;21.90;;;5.50;99.90;;;;;;5030145;28;20038;-58
2022/04/16 04:12:24;;;;;;;47.58;25.13;;;5.50;99.90;;;;;;5031817;28;20037;-59
2022/04/16 04:14:49;;;;;;;41.58;23.30;;;5.50;99.90;;;;;;5029993;28;20543;-59
2022/04/16 04:17:15;;;;;;;38.50;22.80;;;5.40;99.90;;;;;;5027812;28;20036;-55
2022/04/16 04:19:43;;;;;;;40.83;22.67;;;5.40;99.90;;;;;;5033544;28;20029;-57
2022/04/16 04:22:11;;;;;;;42.50;23.75;;;5.30;99.90;;;;;;5033318;28;20041;-58
2022/04/16 04:24:37;;;;;;;45.15;24.27;;;5.30;99.90;;;;;;5034502;28;20033;-58
2022/04/16 04:27:04;;;;;;;43.70;23.80;;;5.30;99.90;;;;;;5026404;28;20029;-60
2022/04/16 04:29:30;;;;;;;40.35;23.17;;;5.20;99.90;;;;;;5032813;28;20073;-57
2022/04/16 04:31:56;;;;;;;38.17;23.38;;;5.30;99.90;;;;;;5032734;28;20029;-57
2022/04/16 04:34:22;;;;;;;42.20;22.85;;;5.20;99.90;;;;;;5031274;28;20446;-58
2022/04/16 04:36:48;;;;;;;43.83;21.65;;;5.20;99.90;;;;;;5030914;28;20124;-57
2022/04/16 04:39:14;;;;;;;47.35;23.30;;;5.30;99.90;;;;;;5033237;28;20457;-55
2022/04/16 04:41:42;;;;;;;40.60;22.95;;;5.30;99.90;;;;;;5028594;28;20691;-57
2022/04/16 04:44:12;;;;;;;34.13;20.52;;;5.40;99.90;;;;;;5033985;28;20028;-59
2022/04/16 04:46:38;;;;;;;39.05;22.75;;;5.20;99.90;;;;;;5029348;28;20041;-56
2022/04/16 04:49:07;;;;;;;36.25;21.45;;;5.20;99.90;;;;;;5031853;28;20021;-58
2022/04/16 04:51:34;;;;;;;41.20;21.88;;;5.20;99.90;;;;;;5032329;28;20026;-59
2022/04/16 04:54:00;;;;;;;39.08;22.00;;;5.20;99.90;;;;;;5032390;28;20056;-58
2022/04/16 04:56:25;;;;;;;42.05;24.02;;;5.10;99.90;;;;;;5028933;28;20026;-59
2022/04/16 04:58:50;;;;;;;40.88;22.40;;;5.10;99.90;;;;;;5031770;28;20499;-58
2022/04/16 05:01:18;;;;;;;39.97;22.65;;;5.10;99.90;;;;;;5029122;28;20034;-60
2022/04/16 05:03:43;;;;;;;45.30;22.90;;;5.10;99.90;;;;;;5031293;28;20025;-58
2022/04/16 05:06:09;;;;;;;41.22;22.35;;;5.20;99.90;;;;;;5029088;28;20044;-59
2022/04/16 05:08:34;;;;;;;41.17;23.85;;;5.20;99.90;;;;;;5028836;28;20130;-59
2022/04/16 05:11:00;;;;;;;41.75;23.88;;;5.20;99.90;;;;;;5029895;28;20029;-59
2022/04/16 05:13:25;;;;;;;45.17;24.38;;;5.30;99.90;;;;;;5031215;28;20466;-59
2022/04/16 05:15:51;;;;;;;45.55;22.98;;;5.30;99.90;;;;;;5031118;28;20033;-57
2022/04/16 05:18:17;;;;;;;45.22;22.85;;;5.30;99.90;;;;;;5030561;28;20029;-57
2022/04/16 05:23:12;;;;;;;42.15;22.67;;;5.30;99.90;;;;;;5046528;23;20137;-60
2022/04/16 05:25:38;;;;;;;41.55;23.27;;;5.20;99.90;;;;;;5024840;28;20261;-58
2022/04/16 05:28:03;;;;;;;43.88;23.80;;;5.20;99.90;;;;;;5028424;28;20120;-60
2022/04/16 05:30:34;;;;;;;46.47;23.58;;;5.20;99.90;;;;;;5030297;28;20033;-58
2022/04/16 05:33:05;;;;;;;49.88;23.52;;;5.30;99.90;;;;;;5031131;28;20808;-59
2022/04/16 05:35:32;;;;;;;52.47;24.08;;;5.30;99.90;;;;;;5013227;28;20034;-60
2022/04/16 05:37:59;;;;;;;47.13;24.67;;;5.40;99.90;;;;;;5030327;28;20815;-60
2022/04/16 05:40:25;;;;;;;49.60;25.73;;;5.40;99.90;;;;;;5029556;28;20018;-60
2022/04/16 05:42:50;;;;;;;42.97;25.20;;;5.50;99.90;;;;;;5031863;28;20422;-60
2022/04/16 05:45:16;;;;;;;44.88;24.77;;;5.60;99.90;;;;;;5030885;28;20037;-59
2022/04/16 05:47:43;;;;;;;48.30;26.70;;;5.60;99.90;;;;;;5030306;28;20029;-59
2022/04/16 05:50:09;;;;;;;55.42;27.17;;;5.70;99.90;;;;;;5029949;28;20394;-60
2022/04/16 05:52:35;;;;;;;53.28;26.50;;;5.80;99.90;;;;;;5029774;28;20119;-60
2022/04/16 05:55:02;;;;;;;44.47;25.60;;;5.90;99.90;;;;;;5027932;28;20029;-60
2022/04/16 05:57:29;;;;;;;49.33;26.83;;;6.00;99.90;;;;;;5028131;28;20759;-59
2022/04/16 05:59:58;;;;;;;48.85;26.05;;;6.10;99.90;;;;;;5032436;28;20033;-59
2022/04/16 06:02:23;;;;;;;51.42;28.40;;;6.20;99.90;;;;;;5032678;28;20029;-57
2022/04/16 06:04:50;;;;;;;53.45;29.40;;;6.30;99.90;;;;;;5033519;28;20044;-57
2022/04/16 06:07:16;;;;;;;50.55;28.00;;;6.40;99.90;;;;;;5033279;28;20555;-58
2022/04/16 06:09:41;;;;;;;51.42;27.70;;;6.50;99.90;;;;;;5031169;28;20060;-58
2022/04/16 06:12:09;;;;;;;54.90;29.35;;;6.60;99.90;;;;;;5030369;28;20024;-60
2022/04/16 06:14:35;;;;;;;45.67;26.80;;;6.80;99.90;;;;;;5029277;28;20546;-58
2022/04/16 06:17:01;;;;;;;45.08;27.13;;;6.90;99.90;;;;;;5028063;28;20553;-58
2022/04/16 06:19:27;;;;;;;48.65;26.70;;;7.00;99.90;;;;;;5030010;28;20029;-59
2022/04/16 06:21:53;;;;;;;45.42;26.38;;;7.10;99.90;;;;;;5031952;28;20026;-60
2022/04/16 06:24:18;;;;;;;45.88;25.33;;;7.20;99.90;;;;;;5033120;28;20033;-59
2022/04/16 06:26:45;;;;;;;46.80;26.63;;;7.30;99.90;;;;;;5028461;28;20033;-60
2022/04/16 06:29:11;;;;;;;48.78;26.13;;;7.30;99.90;;;;;;5032733;28;20036;-59
2022/04/16 06:31:37;;;;;;;49.45;26.17;;;7.40;99.90;;;;;;5034864;28;20067;-58
2022/04/16 06:34:02;;;;;;;43.85;25.08;;;7.50;99.90;;;;;;5029634;28;20038;-60
2022/04/16 06:36:28;;;;;;;36.38;21.35;;;7.60;99.90;;;;;;5031957;28;20041;-60
2022/04/16 06:38:54;;;;;;;36.25;20.05;;;7.80;99.90;;;;;;5030484;28;20029;-57
2022/04/16 06:41:19;;;;;;;33.42;19.63;;;7.90;99.90;;;;;;5023157;28;20499;-61
2022/04/16 06:43:44;;;;;;;30.30;18.95;;;8.00;99.90;;;;;;5031635;28;20025;-60
2022/04/16 06:46:11;;;;;;;35.03;20.52;;;8.10;99.90;;;;;;5030471;28;20122;-60
2022/04/16 06:48:37;;;;;;;29.23;18.73;;;8.20;99.90;;;;;;5034100;28;20036;-60
2022/04/16 06:51:02;;;;;;;35.38;19.88;;;8.30;99.90;;;;;;5030019;28;20510;-61
2022/04/16 06:53:28;;;;;;;45.65;26.17;;;8.30;99.90;;;;;;5034443;28;20033;-58
2022/04/16 06:55:54;;;;;;;38.83;20.60;;;8.40;99.90;;;;;;5036556;28;20036;-61
2022/04/16 06:58:19;;;;;;;49.22;25.80;;;8.50;99.90;;;;;;5031421;28;20121;-60
2022/04/16 07:00:45;;;;;;;29.02;17.83;;;8.60;99.90;;;;;;5024478;28;20025;-59
2022/04/16 07:03:10;;;;;;;28.42;16.88;;;8.80;99.90;;;;;;5030295;28;20116;-60
2022/04/16 07:05:36;;;;;;;35.58;18.98;;;8.90;99.90;;;;;;5034906;28;20033;-61
2022/04/16 07:08:02;;;;;;;30.95;17.92;;;9.00;99.90;;;;;;5030807;28;20036;-60
2022/04/16 07:10:27;;;;;;;31.02;17.98;;;9.00;99.90;;;;;;5031642;28;20494;-59
2022/04/16 07:12:53;;;;;;;31.98;18.13;;;9.20;99.90;;;;;;5029446;28;20060;-59
2022/04/16 07:15:18;;;;;;;28.38;17.23;;;9.30;99.90;;;;;;5028513;28;20037;-61
2022/04/16 07:17:45;;;;;;;31.05;18.50;;;9.30;99.90;;;;;;5029408;28;20045;-57
2022/04/16 07:20:11;;;;;;;31.00;19.55;;;9.40;99.90;;;;;;5033529;28;20037;-59
2022/04/16 07:22:37;;;;;;;29.20;17.27;;;9.50;99.90;;;;;;5032227;28;20034;-56
2022/04/16 07:25:06;;;;;;;28.30;16.90;;;9.60;99.90;;;;;;5036821;28;20549;-58
2022/04/16 07:27:34;;;;;;;30.17;17.45;;;9.70;99.90;;;;;;5034305;28;20030;-59
2022/04/16 07:30:00;;;;;;;33.58;19.00;;;9.80;99.90;;;;;;5037424;28;20051;-58
2022/04/16 07:32:26;;;;;;;30.73;19.02;;;9.90;99.90;;;;;;5018014;28;20026;-57
2022/04/16 07:34:52;;;;;;;34.53;19.95;;;10.10;99.90;;;;;;5035096;28;20051;-58
2022/04/16 07:37:18;;;;;;;30.35;17.80;;;10.20;99.90;;;;;;5033914;28;20535;-58
2022/04/16 07:39:43;;;;;;;32.92;19.08;;;10.30;99.90;;;;;;5034554;28;20376;-55
2022/04/16 07:42:09;;;;;;;31.55;19.08;;;10.40;99.90;;;;;;5032840;28;20499;-54
2022/04/16 07:44:35;;;;;;;33.63;20.13;;;10.50;99.90;;;;;;5014894;28;20028;-57
2022/04/16 07:47:00;;;;;;;32.80;18.55;;;10.50;99.90;;;;;;5001131;28;20040;-57
2022/04/16 07:49:29;;;;;;;34.95;18.27;;;10.60;99.90;;;;;;5034836;28;20537;-57
2022/04/16 07:51:54;;;;;;;30.75;16.80;;;10.80;99.90;;;;;;4998447;28;20048;-56
2022/04/16 07:54:20;;;;;;;29.30;17.65;;;10.90;99.90;;;;;;5032938;28;20021;-58
2022/04/16 07:56:45;;;;;;;30.13;17.67;;;11.00;99.90;;;;;;5031742;28;20446;-58
2022/04/16 07:59:12;;;;;;;30.40;17.73;;;11.10;99.90;;;;;;5031963;28;20029;-58
2022/04/16 08:01:38;;;;;;;29.92;19.05;;;11.20;99.90;;;;;;5032837;28;20029;-58
2022/04/16 08:04:04;;;;;;;30.67;17.83;;;11.30;99.90;;;;;;5027436;28;20083;-56
2022/04/16 08:06:30;;;;;;;31.00;17.30;;;11.30;99.90;;;;;;5034607;28;20037;-54
2022/04/16 08:09:01;;;;;;;35.88;18.55;;;11.40;99.90;;;;;;5017565;28;20032;-53
2022/04/16 08:11:31;;;;;;;27.95;17.60;;;11.50;99.90;;;;;;5033991;28;20084;-57
2022/04/16 08:14:10;;;;;;;30.48;17.13;;;11.60;99.90;;;;;;5018216;28;20029;-59
2022/04/16 08:16:36;;;;;;;23.77;15.52;;;11.60;99.90;;;;;;4993837;28;20104;-58
2022/04/16 08:19:01;;;;;;;25.33;15.95;;;11.70;99.90;;;;;;5033504;28;20100;-56
2022/04/16 08:21:28;;;;;;;23.63;15.02;;;11.80;99.90;;;;;;5018780;28;20033;-57
2022/04/16 08:26:40;;;;;;;23.80;13.65;;;11.90;99.90;;;;;;5034976;28;20091;-57
2022/04/16 08:29:07;;;;;;;28.50;14.77;;;12.00;99.90;;;;;;5012438;28;20450;-56
2022/04/16 08:31:33;;;;;;;21.30;14.07;;;12.10;99.90;;;;;;5030220;28;20021;-56
2022/04/16 08:33:59;;;;;;;22.67;13.40;;;12.20;99.90;;;;;;5033374;28;20076;-56
2022/04/16 08:36:26;;;;;;;21.65;13.30;;;12.30;99.90;;;;;;5015704;28;20116;-57
2022/04/16 08:38:55;;;;;;;19.10;11.02;;;12.40;99.90;;;;;;5016714;28;20033;-58
2022/04/16 08:41:24;;;;;;;15.07;9.65;;;12.50;99.90;;;;;;5037421;28;20026;-57
2022/04/16 08:43:55;;;;;;;20.13;10.25;;;12.60;99.90;;;;;;5011318;28;20446;-58
2022/04/16 08:46:22;;;;;;;13.90;9.32;;;12.60;99.90;;;;;;4996678;28;20037;-55
2022/04/16 08:48:48;;;;;;;15.57;9.73;;;12.80;99.90;;;;;;5025351;28;20079;-58
2022/04/16 08:51:15;;;;;;;16.50;9.88;;;12.90;99.90;;;;;;5015111;28;20044;-56
2022/04/16 08:53:41;;;;;;;17.92;9.40;;;13.00;99.90;;;;;;5016965;28;20090;-57
2022/04/16 08:56:10;;;;;;;18.15;8.05;;;13.10;99.90;;;;;;5030170;28;20033;-57
2022/04/16 08:58:36;;;;;;;11.90;7.45;;;13.30;99.90;;;;;;5019105;28;20021;-57
2022/04/16 09:01:04;;;;;;;11.25;7.28;;;13.40;99.90;;;;;;5031621;28;20026;-57
2022/04/16 09:03:35;;;;;;;9.95;6.75;;;13.60;99.90;;;;;;5015684;28;20037;-56
2022/04/16 09:06:00;;;;;;;9.30;5.90;;;13.60;99.90;;;;;;5029370;28;20112;-58
2022/04/16 09:08:31;;;;;;;6.95;4.43;;;13.70;99.90;;;;;;5030277;28;20121;-57
2022/04/16 09:11:11;;;;;;;9.68;5.38;;;14.00;99.90;;;;;;5020764;28;20093;-57
2022/04/16 09:13:50;;;;;;;7.90;4.97;;;14.30;99.90;;;;;;5031394;28;20108;-57
2022/04/16 09:16:16;;;;;;;6.70;5.00;;;14.50;99.90;;;;;;5032661;28;20021;-56
2022/04/16 09:19:17;;;;;;;6.95;4.60;;;14.80;99.90;;;;;;5015843;28;20031;-58
2022/04/16 09:21:44;;;;;;;6.65;4.88;;;14.90;99.90;;;;;;5022464;28;20025;-58
2022/04/16 09:24:13;;;;;;;7.65;5.00;;;15.00;99.90;;;;;;5019305;28;20075;-58
2022/04/16 09:26:40;;;;;;;9.65;5.18;;;15.20;99.90;;;;;;5020510;28;20079;-57
2022/04/16 09:29:12;;;;;;;13.43;5.80;;;15.30;99.90;;;;;;5016387;28;20605;-56
2022/04/16 09:31:40;;;;;;;8.90;5.55;;;15.00;99.90;;;;;;5012721;28;20041;-57
2022/04/16 09:34:16;;;;;;;7.32;5.43;;;14.70;99.90;;;;;;5031699;28;20087;-57
2022/04/16 09:36:45;;;;;;;10.15;6.40;;;14.60;99.90;;;;;;5013703;28;20033;-57
2022/04/16 09:39:11;;;;;;;9.70;5.60;;;14.30;99.90;;;;;;5012947;28;20076;-57
2022/04/16 09:41:40;;;;;;;7.40;5.53;;;14.40;99.90;;;;;;5029880;28;20022;-57
2022/04/16 09:44:27;;;;;;;8.57;4.95;;;14.50;99.90;;;;;;5013823;28;20030;-57
2022/04/16 09:46:57;;;;;;;9.77;5.18;;;14.40;99.90;;;;;;5012891;28;20025;-56
2022/04/16 09:49:24;;;;;;;6.15;4.57;;;14.40;99.90;;;;;;5031230;28;20025;-56
2022/04/16 09:51:51;;;;;;;7.40;4.45;;;14.90;99.90;;;;;;4994354;28;20045;-56
2022/04/16 09:54:18;;;;;;;7.95;5.18;;;15.40;99.90;;;;;;5012810;28;20029;-55
2022/04/16 09:56:46;;;;;;;4.88;3.75;;;15.70;99.90;;;;;;5027789;28;20028;-56
2022/04/16 09:59:14;;;;;;;4.30;2.83;;;15.90;99.90;;;;;;5011655;28;20034;-58
2022/04/16 10:01:48;;;;;;;9.50;3.83;;;15.90;99.90;;;;;;4999666;28;20117;-57
2022/04/16 10:04:22;;;;;;;5.47;3.90;;;16.20;99.90;;;;;;5029776;28;20017;-56
2022/04/16 10:06:51;;;;;;;7.72;3.90;;;16.30;99.90;;;;;;5010338;28;20052;-57
2022/04/16 10:09:17;;;;;;;5.95;3.58;;;16.50;99.90;;;;;;5012594;28;20399;-58
2022/04/16 10:14:49;;;;;;;5.30;3.42;;;16.60;99.90;;;;;;5029709;28;20035;-56
2022/04/16 10:17:14;;;;;;;5.80;3.53;;;17.10;99.90;;;;;;5011768;28;20383;-55
2022/04/16 10:19:45;;;;;;;3.80;2.70;;;17.20;99.90;;;;;;5012489;28;20064;-57
2022/04/16 10:22:27;;;;;;;7.75;2.70;;;17.20;99.90;;;;;;5030211;28;20029;-56
2022/04/16 10:24:56;;;;;;;3.08;2.55;;;17.40;99.90;;;;;;5014500;28;20422;-57
2022/04/16 10:27:27;;;;;;;3.33;2.38;;;17.50;99.90;;;;;;5014322;28;20074;-56
2022/04/16 10:29:57;;;;;;;3.50;2.47;;;17.20;99.90;;;;;;5005850;28;20302;-56
2022/04/16 10:32:27;;;;;;;2.72;2.45;;;17.50;99.90;;;;;;5015765;28;20029;-56
2022/04/16 10:35:03;;;;;;;3.65;2.40;;;17.90;99.90;;;;;;4996477;28;20025;-59
2022/04/16 10:37:37;;;;;;;2.40;2.10;;;18.10;99.90;;;;;;5010742;28;20036;-57
2022/04/16 10:40:16;;;;;;;2.85;2.10;;;18.10;99.90;;;;;;5026712;28;20467;-58
2022/04/16 10:42:50;;;;;;;2.75;1.80;;;17.90;99.90;;;;;;5015482;28;20104;-57
2022/04/16 10:45:16;;;;;;;;;;;18.10;99.90;;;;;;5030453;28;20056;-58
2022/04/16 10:47:42;;;;;;;5.90;2.30;;;18.30;99.90;;;;;;5026831;28;19967;-57
2022/04/16 10:50:17;;;;;;;3.70;2.45;;;18.40;99.90;;;;;;5012103;28;20044;-57
2022/04/16 10:52:53;;;;;;;4.85;2.30;;;18.40;99.90;;;;;;5016826;28;20506;-57
2022/04/16 10:55:21;;;;;;;3.63;2.00;;;18.50;99.90;;;;;;5021787;28;20033;-55
2022/04/16 10:58:03;;;;;;;3.50;2.50;;;18.80;99.90;;;;;;5031991;28;20441;-58
2022/04/16 11:01:06;;;;;;;2.90;2.08;;;18.60;99.90;;;;;;5002537;28;20045;-59
2022/04/16 11:03:31;;;;;;;2.55;2.20;;;18.50;99.90;;;;;;5013665;28;20096;-57
2022/04/16 11:06:05;;;;;;;2.90;1.95;;;18.50;98.90;;;;;;5035969;28;20045;-54
2022/04/16 11:08:34;;;;;;;3.67;2.00;;;18.20;99.60;;;;;;5037837;28;20456;-58
2022/04/16 11:11:02;;;;;;;4.28;2.03;;;18.10;99.90;;;;;;5016158;28;20118;-58
2022/04/16 11:13:36;;;;;;;4.22;2.08;;;18.20;99.90;;;;;;5017854;28;20073;-58
2022/04/16 11:16:02;;;;;;;;;;;18.40;99.90;;;;;;5017042;28;20056;-57
2022/04/16 11:18:42;;;;;;;3.90;2.13;;;18.60;97.10;;;;;;5034123;28;20370;-55
2022/04/16 11:21:19;;;;;;;3.03;1.90;;;18.30;99.00;;;;;;5013476;28;20074;-56
2022/04/16 11:23:52;;;;;;;2.95;2.08;;;18.40;99.90;;;;;;5012578;28;20041;-56
2022/04/16 11:34:29;;;;;;;4.05;2.90;;;18.40;98.60;;;;;;5035566;28;20109;-52
2022/04/16 11:36:55;;;;;;;3.20;2.00;;;18.30;97.20;;;;;;5032855;28;20025;-54
2022/04/16 11:39:22;;;;;;;9.98;5.07;;;18.80;97.30;;;;;;5048844;28;20066;-54
2022/04/16 11:41:55;;;;;;;4.03;2.40;;;19.10;96.50;;;;;;5048054;28;20426;-55
2022/04/16 11:44:50;;;;;;;8.40;3.83;;;19.10;95.20;;;;;;5052047;28;20048;-55
2022/04/16 11:47:24;;;;;;;8.52;3.13;;;18.90;96.90;;;;;;5049080;28;20057;-56
2022/04/16 11:49:54;;;;;;;11.55;8.18;;;19.10;96.80;;;;;;5045525;28;20555;-56
2022/04/16 11:52:30;;;;;;;8.77;5.88;;;18.90;95.80;;;;;;5047938;28;20503;-56
2022/04/16 11:55:07;;;;;;;3.30;2.60;;;19.30;95.80;;;;;;5048507;28;20067;-55
2022/04/16 11:57:34;;;;;;;3.60;2.72;;;19.70;93.20;;;;;;5047891;28;20033;-55
2022/04/16 12:00:04;;;;;;;3.63;2.75;;;19.50;92.40;;;;;;5049658;28;20123;-55
2022/04/16 12:02:31;;;;;;;11.07;5.97;;;19.60;92.80;;;;;;5049219;28;20021;-57
2022/04/16 12:05:07;;;;;;;45.08;24.67;;;19.10;96.80;;;;;;5035381;28;20025;-55
2022/04/16 12:07:33;;;;;;;72.43;39.28;;;19.30;97.50;;;;;;5044341;28;20060;-53
2022/04/16 12:10:02;;;;;;;4.90;2.72;;;19.60;95.00;;;;;;5049067;28;20048;-57
2022/04/16 12:12:28;;;;;;;3.00;2.25;;;20.00;94.00;;;;;;5049664;28;20608;-58
2022/04/16 12:14:54;;;;;;;5.03;3.00;;;19.90;94.60;;;;;;5041739;28;20526;-54
2022/04/16 12:17:26;;;;;;;3.97;2.67;;;20.10;93.80;;;;;;5044342;28;20047;-57
2022/04/16 12:20:05;;;;;;;2.90;2.55;;;19.90;94.30;;;;;;5044072;28;20025;-55
2022/04/16 12:22:48;;;;;;;8.40;2.30;;;19.90;93.80;;;;;;5043034;28;20094;-57
2022/04/16 12:25:19;;;;;;;4.38;2.75;;;19.90;94.50;;;;;;5046110;28;20110;-52
2022/04/16 12:27:57;;;;;;;4.65;2.47;;;19.80;92.10;;;;;;5045378;28;20144;-53
2022/04/16 12:30:27;;;;;;;4.40;2.60;;;20.30;91.80;;;;;;5040975;28;20025;-54
2022/04/16 12:33:00;;;;;;;4.55;2.90;;;20.20;90.40;;;;;;5043084;28;20144;-51
2022/04/16 12:35:27;;;;;;;5.35;2.47;;;19.70;92.10;;;;;;5041437;28;20052;-52
2022/04/16 12:37:54;;;;;;;4.75;2.60;;;20.30;90.70;;;;;;5043703;28;20545;-51
2022/04/16 12:40:21;;;;;;;7.57;3.45;;;20.00;90.30;;;;;;5042088;28;20029;-54
2022/04/16 12:42:51;;;;;;;2.53;2.20;;;19.60;92.30;;;;;;5040876;28;20890;-50
2022/04/16 12:45:18;;;;;;;3.80;2.63;;;20.30;90.40;;;;;;5044073;28;20039;-54
2022/04/16 12:47:44;;;;;;;4.30;2.58;;;20.90;91.80;;;;;;5037492;28;20052;-51
2022/04/16 12:50:11;;;;;;;3.83;2.83;;;20.50;90.80;;;;;;5038291;28;20033;-55
2022/04/16 12:52:37;;;;;;;7.20;2.40;;;20.40;89.10;;;;;;5061338;28;20040;-57
2022/04/16 12:55:03;;;;;;;3.78;2.38;;;20.90;85.40;;;;;;5041677;28;20137;-56
2022/04/16 12:57:29;;;;;;;3.67;2.47;;;21.10;83.70;;;;;;5043715;28;20029;-55
2022/04/16 12:59:55;;;;;;;3.10;1.90;;;20.90;83.60;;;;;;5046689;28;20028;-57
2022/04/16 13:02:21;;;;;;;6.22;3.25;;;21.10;82.00;;;;;;5040315;28;20542;-56
2022/04/16 13:04:46;;;;;;;4.15;2.60;;;20.60;84.60;;;;;;5041137;28;20029;-56
2022/04/16 13:07:12;;;;;;;9.32;2.83;;;20.70;85.50;;;;;;5038187;28;20025;-51
2022/04/16 13:09:38;;;;;;;5.03;2.45;;;20.90;80.90;;;;;;5042669;28;20021;-52